Time;durP1;ratioP1;P1;durP2;ratioP2;P2;SDS_P1;SDS_P2;PMS_P1;PMS_P2;Temp;Humidity;BMP_temperature;BMP_pressure;BME280_temperature;BME280_humidity;BME280_pressure;Samples;Min_cycle;Max_cycle;Signal;HPM_P1;HPM_P2
2022/05/23 00:01:51;;;;;;;2.08;1.17;;;;;;;17.08;30.51;98336.88;5150843;27;20061;-64
2022/05/23 00:04:17;;;;;;;3.58;1.30;;;;;;;17.06;30.28;98335.38;5145112;27;20039;-65
2022/05/23 00:06:43;;;;;;;3.45;1.17;;;;;;;17.05;29.97;98337.25;5151909;27;20046;-65
2022/05/23 00:09:10;;;;;;;3.13;1.08;;;;;;;17.03;30.35;98338.47;5152316;27;20034;-65
2022/05/23 00:11:36;;;;;;;0.93;0.73;;;;;;;17.01;30.35;98335.16;5152751;27;20121;-65
2022/05/23 00:14:01;;;;;;;1.90;1.00;;;;;;;16.99;30.47;98338.00;5155213;27;20524;-65
2022/05/23 00:16:31;;;;;;;1.88;1.08;;;;;;;16.98;29.97;98341.72;5156419;27;20046;-65
2022/05/23 00:18:57;;;;;;;2.22;0.90;;;;;;;16.96;30.25;98338.41;5156078;27;20122;-65
2022/05/23 00:21:22;;;;;;;1.70;0.90;;;;;;;16.95;30.25;98352.78;5156836;27;20109;-64
2022/05/23 00:23:48;;;;;;;2.40;0.93;;;;;;;16.92;30.09;98351.28;5157913;27;20038;-64
2022/05/23 00:26:17;;;;;;;2.50;1.20;;;;;;;16.92;29.89;98351.28;5157552;27;20374;-65
2022/05/23 00:28:43;;;;;;;2.17;0.80;;;;;;;16.89;30.14;98348.16;5155239;27;20029;-64
2022/05/23 00:31:10;;;;;;;1.65;1.02;;;;;;;16.86;30.40;98354.72;5156014;27;20087;-66
2022/05/23 00:36:21;;;;;;;1.67;1.10;;;;;;;16.85;29.95;98349.56;5155627;27;20041;-66
2022/05/23 00:38:46;;;;;;;2.20;1.02;;;;;;;16.84;30.25;98350.56;5144437;27;20043;-66
2022/05/23 00:44:19;;;;;;;2.83;1.00;;;;;;;16.80;30.48;98355.47;5147916;27;20092;-65
2022/05/23 00:46:55;;;;;;;3.55;1.00;;;;;;;16.81;30.67;98350.97;5136365;27;20058;-65
2022/05/23 00:49:25;;;;;;;2.15;1.10;;;;;;;16.80;30.69;98352.81;5143625;27;20422;-65
2022/05/23 00:51:51;;;;;;;2.03;0.95;;;;;;;16.80;30.72;98352.00;5155296;27;20038;-66
2022/05/23 00:54:19;;;;;;;2.47;1.40;;;;;;;16.80;30.50;98354.66;5154606;27;20041;-65
2022/05/23 00:56:48;;;;;;;3.28;1.25;;;;;;;16.80;30.56;98352.00;5155591;27;20435;-65
2022/05/23 00:59:19;;;;;;;2.10;1.27;;;;;;;16.77;30.75;98350.50;5155537;27;20038;-65
2022/05/23 01:01:44;;;;;;;;;;;;;;;16.71;31.10;98352.09;5156690;27;20045;-66
2022/05/23 01:04:11;;;;;;;2.55;1.63;;;;;;;16.71;30.75;98353.94;5153662;27;20374;-65
2022/05/23 01:06:36;;;;;;;2.35;1.05;;;;;;;16.71;30.83;98359.28;5155380;27;20042;-65
2022/05/23 01:09:02;;;;;;;2.28;1.30;;;;;;;16.72;30.88;98366.28;5155782;27;20035;-66
2022/05/23 01:11:28;;;;;;;3.03;1.15;;;;;;;16.73;31.08;98362.59;5155325;27;20038;-65
2022/05/23 01:13:54;;;;;;;3.72;1.42;;;;;;;16.70;30.67;98365.66;5155146;27;20035;-65
2022/05/23 01:16:24;;;;;;;3.75;1.20;;;;;;;16.70;30.42;98363.78;5155721;27;20426;-65
2022/05/23 01:18:50;;;;;;;2.47;1.20;;;;;;;16.68;30.44;98365.00;5155369;27;20501;-66
2022/05/23 01:21:37;;;;;;;2.13;1.27;;;;;;;16.69;30.30;98358.66;5154740;27;20177;-65
2022/05/23 01:24:03;;;;;;;3.20;2.20;;;;;;;16.65;30.88;98366.22;5149631;27;20030;-65
2022/05/23 01:26:31;;;;;;;2.00;1.30;;;;;;;16.66;30.47;98373.22;5154023;27;20030;-64
2022/05/23 01:28:57;;;;;;;5.47;1.88;;;;;;;16.62;30.23;98369.25;5155150;27;20056;-65
2022/05/23 01:31:22;;;;;;;3.42;1.80;;;;;;;16.63;30.18;98370.91;5155700;27;20107;-65
2022/05/23 01:33:48;;;;;;;2.10;1.30;;;;;;;16.60;30.36;98372.13;5155018;27;20029;-65
2022/05/23 01:36:15;;;;;;;5.30;1.65;;;;;;;16.61;30.24;98370.28;5150315;27;20732;-65
2022/05/23 01:38:41;;;;;;;2.83;1.33;;;;;;;16.60;30.47;98368.63;5154666;27;20031;-65
2022/05/23 01:41:07;;;;;;;2.92;1.52;;;;;;;16.60;30.59;98371.28;5153525;27;20126;-65
2022/05/23 01:43:33;;;;;;;4.55;1.60;;;;;;;16.60;30.65;98368.63;5153214;27;20109;-65
2022/05/23 01:45:59;;;;;;;2.60;1.60;;;;;;;16.56;30.44;98360.16;5152848;27;20037;-65
2022/05/23 01:48:25;;;;;;;3.33;1.25;;;;;;;16.57;31.04;98367.16;5154995;27;20392;-65
2022/05/23 01:50:51;;;;;;;3.33;1.45;;;;;;;16.59;30.91;98364.31;5154803;27;20038;-66
2022/05/23 01:53:16;;;;;;;5.93;1.30;;;;;;;16.59;30.67;98372.31;5154417;27;20397;-65
2022/05/23 01:55:42;;;;;;;4.80;1.60;;;;;;;16.58;30.64;98367.97;5153929;27;20500;-65
2022/05/23 01:58:08;;;;;;;2.70;1.63;;;;;;;16.57;30.75;98377.84;5153834;27;20065;-65
2022/05/23 02:03:19;;;;;;;3.55;1.73;;;;;;;16.56;30.95;98368.19;5151286;27;20037;-66
2022/05/23 02:05:45;;;;;;;4.85;1.90;;;;;;;16.56;30.73;98375.34;5153682;27;20121;-66
2022/05/23 02:08:10;;;;;;;4.07;1.58;;;;;;;16.56;31.20;98380.69;5154874;27;20544;-66
2022/05/23 02:10:37;;;;;;;3.28;1.50;;;;;;;16.57;31.01;98377.00;5154424;27;20054;-66
2022/05/23 02:13:03;;;;;;;3.33;1.83;;;;;;;16.55;31.13;98369.19;5154595;27;20025;-66
2022/05/23 02:15:31;;;;;;;3.13;1.60;;;;;;;16.57;31.14;98369.84;5152874;27;20404;-66
2022/05/23 02:17:59;;;;;;;4.55;1.88;;;;;;;16.58;30.68;98370.66;5151294;27;20054;-65
2022/05/23 02:20:26;;;;;;;3.13;1.65;;;;;;;16.58;30.73;98373.31;5151757;27;20038;-66
2022/05/23 02:22:52;;;;;;;2.42;1.67;;;;;;;16.58;30.70;98371.50;5153707;27;20548;-66
2022/05/23 02:25:17;;;;;;;4.30;1.73;;;;;;;16.60;30.97;98376.63;5152323;27;20041;-66
2022/05/23 02:27:43;;;;;;;3.33;1.90;;;;;;;16.60;30.47;98376.63;5149911;27;20034;-66
2022/05/23 02:30:09;;;;;;;2.25;1.45;;;;;;;16.63;30.46;98376.25;5153494;27;20026;-66
2022/05/23 02:32:34;;;;;;;3.40;1.65;;;;;;;16.67;30.80;98372.22;5153851;27;20506;-66
2022/05/23 02:35:00;;;;;;;1.85;1.20;;;;;;;16.69;31.08;98366.66;5153382;27;20034;-65
2022/05/23 02:37:25;;;;;;;3.70;1.27;;;;;;;16.74;30.93;98377.63;5151992;27;20504;-66
2022/05/23 02:39:51;;;;;;;2.78;1.45;;;;;;;16.76;30.70;98364.91;5153574;27;20577;-66
2022/05/23 02:42:16;;;;;;;3.92;1.63;;;;;;;16.80;30.88;98373.38;5154033;27;20043;-66
2022/05/23 02:44:42;;;;;;;2.78;1.50;;;;;;;16.81;31.09;98375.03;5153891;27;20022;-66
2022/05/23 02:47:08;;;;;;;4.13;1.33;;;;;;;16.82;31.09;98366.00;5151392;27;20030;-66
2022/05/23 02:49:33;;;;;;;4.65;1.20;;;;;;;16.82;31.05;98364.13;5153692;27;20555;-66
2022/05/23 02:51:59;;;;;;;5.00;1.65;;;;;;;16.80;30.59;98370.69;5153529;27;20022;-66
2022/05/23 02:54:24;;;;;;;4.63;1.20;;;;;;;16.85;30.66;98381.63;5153744;27;20022;-66
2022/05/23 02:56:50;;;;;;;2.55;1.40;;;;;;;16.86;30.86;98373.44;5151462;27;20054;-65
2022/05/23 02:59:15;;;;;;;2.92;1.45;;;;;;;16.88;30.51;98375.91;5152214;27;20041;-65
2022/05/23 03:04:26;;;;;;;1.85;1.13;;;;;;;16.96;30.78;98374.97;5149455;27;20064;-64
2022/05/23 03:06:52;;;;;;;2.03;1.30;;;;;;;17.02;30.69;98385.72;5152151;27;20038;-64
2022/05/23 03:09:17;;;;;;;2.35;1.15;;;;;;;17.12;30.52;98384.59;5151272;27;20038;-64
2022/05/23 03:11:43;;;;;;;2.75;1.65;;;;;;;17.27;30.39;98384.50;5153290;27;20050;-64
2022/05/23 03:14:09;;;;;;;2.13;1.27;;;;;;;17.47;30.10;98382.84;5153562;27;20074;-64
2022/05/23 03:16:34;;;;;;;3.58;1.77;;;;;;;17.74;29.67;98390.19;5152719;27;20084;-64
2022/05/23 03:19:00;;;;;;;3.10;1.13;;;;;;;17.98;29.64;98392.47;5150744;27;20037;-64
2022/05/23 03:27:10;;;;;;;3.72;1.20;;;;;;;18.43;29.47;98388.56;5069074;28;20037;-65
2022/05/23 03:29:35;;;;;;;5.00;1.60;;;;;;;18.48;29.46;98391.44;5131751;27;20039;-65
2022/05/23 03:32:01;;;;;;;3.38;1.55;;;;;;;18.55;29.23;98394.13;5153284;27;20030;-65
2022/05/23 03:34:27;;;;;;;3.67;2.10;;;;;;;18.67;28.65;98394.41;5152066;27;20091;-65
2022/05/23 03:36:53;;;;;;;2.30;1.30;;;;;;;18.83;28.63;98393.19;5148935;27;20481;-65
2022/05/23 03:39:18;;;;;;;2.35;1.60;;;;;;;18.90;28.84;98384.13;5150838;27;20030;-65
2022/05/23 03:41:44;;;;;;;5.30;2.22;;;;;;;18.98;28.49;98393.88;5152831;27;20125;-65
2022/05/23 03:44:09;;;;;;;3.08;1.92;;;;;;;19.02;28.60;98395.13;5134084;27;20034;-65
2022/05/23 03:46:36;;;;;;;3.95;1.80;;;;;;;19.00;28.75;98389.13;5153164;27;20031;-65
2022/05/23 03:49:03;;;;;;;4.35;2.10;;;;;;;18.95;28.68;98393.47;5153582;27;21995;-64
2022/05/23 03:51:28;;;;;;;4.13;1.90;;;;;;;18.89;28.65;98384.34;5156961;27;20037;-64
2022/05/23 03:53:55;;;;;;;2.95;1.50;;;;;;;18.86;28.66;98388.28;5157367;27;20046;-65
2022/05/23 03:56:21;;;;;;;4.72;1.85;;;;;;;18.87;28.40;98391.75;5157114;27;20061;-65
2022/05/23 03:58:46;;;;;;;3.33;2.22;;;;;;;18.85;28.39;98388.47;5156133;27;20095;-64
2022/05/23 04:01:14;;;;;;;3.25;1.80;;;;;;;18.83;28.56;98386.00;5154211;27;20058;-64
2022/05/23 04:03:40;;;;;;;2.55;1.80;;;;;;;18.82;28.38;98387.00;5156750;27;20039;-65
2022/05/23 04:06:06;;;;;;;2.85;1.90;;;;;;;18.82;28.47;98381.66;5156728;27;20035;-64
2022/05/23 04:08:32;;;;;;;3.00;1.73;;;;;;;18.79;28.33;98383.94;5156604;27;20470;-65
2022/05/23 04:10:57;;;;;;;4.18;2.25;;;;;;;18.73;28.41;98388.25;5155085;27;20034;-65
2022/05/23 04:13:25;;;;;;;5.82;1.90;;;;;;;18.67;28.38;98387.19;5156044;27;20043;-64
2022/05/23 04:15:51;;;;;;;3.90;2.75;;;;;;;18.61;28.33;98383.44;5152986;27;20027;-64
2022/05/23 04:18:17;;;;;;;4.13;1.73;;;;;;;18.56;28.38;98395.78;5155360;27;20539;-65
2022/05/23 04:20:43;;;;;;;3.72;1.88;;;;;;;18.53;28.18;98385.50;5137301;27;20041;-64
2022/05/23 04:23:09;;;;;;;3.65;1.73;;;;;;;18.50;28.58;98388.59;5156286;27;20049;-63
2022/05/23 04:25:40;;;;;;;2.38;1.90;;;;;;;18.51;28.50;98379.53;5152875;27;20129;-64
2022/05/23 04:28:05;;;;;;;4.38;1.80;;;;;;;18.55;28.48;98381.59;5156387;27;20502;-64
2022/05/23 04:30:31;;;;;;;3.97;1.90;;;;;;;18.61;28.48;98371.91;5156564;27;20173;-64
2022/05/23 04:35:40;;;;;;;3.00;2.22;;;;;;;18.99;27.99;98365.22;5154204;27;20090;-64
2022/05/23 04:38:06;;;;;;;2.67;1.80;;;;;;;19.32;27.74;98362.56;5152173;27;20469;-64
2022/05/23 04:40:31;;;;;;;4.85;2.22;;;;;;;19.63;27.63;98360.28;5155857;27;20057;-64
2022/05/23 04:42:57;;;;;;;3.85;2.67;;;;;;;19.94;27.46;98364.97;5156254;27;20058;-64
2022/05/23 04:45:23;;;;;;;4.05;2.58;;;;;;;20.21;27.05;98372.94;5153185;27;20041;-64
2022/05/23 04:50:33;;;;;;;4.20;2.03;;;;;;;20.65;26.99;98367.81;5153385;27;20053;-64
2022/05/23 04:52:59;;;;;;;3.65;2.60;;;;;;;20.69;26.65;98378.94;5156143;27;20037;-64
2022/05/23 04:55:25;;;;;;;7.95;2.60;;;;;;;20.62;26.49;98376.28;5155810;27;20397;-64
2022/05/23 04:57:52;;;;;;;4.63;2.15;;;;;;;20.52;26.72;98379.44;5155798;27;20030;-64
2022/05/23 05:00:19;;;;;;;4.35;2.30;;;;;;;20.43;26.55;98378.84;5153643;27;20065;-64
2022/05/23 05:02:46;;;;;;;6.65;2.38;;;;;;;20.34;27.00;98374.78;5155852;27;20125;-64
2022/05/23 05:05:14;;;;;;;5.82;2.15;;;;;;;20.24;27.03;98371.69;5152964;27;20034;-61
2022/05/23 05:07:40;;;;;;;5.90;2.28;;;;;;;20.16;27.15;98358.50;5156689;27;20045;-65
2022/05/23 05:10:06;;;;;;;3.10;1.85;;;;;;;20.09;27.44;98369.28;5156740;27;20026;-65
2022/05/23 05:12:31;;;;;;;2.90;2.10;;;;;;;20.01;27.64;98370.34;5157098;27;20075;-65
2022/05/23 05:14:58;;;;;;;4.90;2.65;;;;;;;20.09;27.43;98369.28;5156077;27;20038;-66
2022/05/23 05:17:24;;;;;;;6.93;2.42;;;;;;;20.17;27.07;98362.84;5154539;27;20071;-65
2022/05/23 05:19:51;;;;;;;3.60;1.80;;;;;;;20.28;27.12;98356.81;5156418;27;20149;-65
2022/05/23 05:22:16;;;;;;;3.35;1.77;;;;;;;20.42;27.16;98374.50;5156490;27;20041;-65
2022/05/23 05:24:42;;;;;;;5.75;2.30;;;;;;;20.51;26.90;98353.59;5154669;27;20050;-64
2022/05/23 05:27:09;;;;;;;3.13;1.90;;;;;;;20.61;27.24;98355.81;5136198;27;20064;-65
2022/05/23 05:29:35;;;;;;;3.50;1.85;;;;;;;20.68;27.10;98353.91;5154253;27;20034;-64
2022/05/23 05:32:03;;;;;;;3.10;1.92;;;;;;;20.74;26.80;98347.69;5156506;27;20150;-64
2022/05/23 05:34:41;;;;;;;4.63;1.98;;;;;;;20.79;26.98;98348.94;5156130;27;20113;-64
2022/05/23 05:37:13;;;;;;;3.22;1.70;;;;;;;20.82;26.65;98343.94;5153838;27;20034;-64
2022/05/23 05:39:40;;;;;;;6.25;1.73;;;;;;;20.84;26.79;98339.19;5155753;27;20045;-64
2022/05/23 05:42:20;;;;;;;3.30;1.90;;;;;;;20.85;26.80;98334.63;5156426;27;20030;-64
2022/05/23 05:44:52;;;;;;;2.83;1.73;;;;;;;20.88;26.73;98336.88;5155437;27;20039;-64
2022/05/23 05:47:19;;;;;;;3.40;1.90;;;;;;;20.90;26.79;98334.78;5156079;27;20539;-64
2022/05/23 05:49:49;;;;;;;4.75;1.45;;;;;;;20.91;27.01;98331.06;5153201;27;20027;-64
2022/05/23 05:52:17;;;;;;;4.93;2.10;;;;;;;20.91;26.61;98325.69;5155914;27;20042;-64
2022/05/23 05:54:42;;;;;;;2.60;1.27;;;;;;;20.93;27.10;98328.16;5155146;27;20113;-64
2022/05/23 05:57:11;;;;;;;2.33;1.40;;;;;;;20.93;26.78;98334.38;5151129;27;20117;-65
2022/05/23 05:59:37;;;;;;;3.50;1.50;;;;;;;20.94;26.96;98341.38;5154888;27;20378;-65
2022/05/23 06:02:03;;;;;;;3.13;1.20;;;;;;;20.94;26.77;98340.56;5155491;27;20038;-64
2022/05/23 06:04:29;;;;;;;1.88;1.27;;;;;;;20.93;26.58;98338.91;5145476;27;20077;-64
2022/05/23 06:12:22;;;;;;;3.33;1.33;;;;;;;20.85;26.54;98337.31;5153001;27;20034;-64
2022/05/23 06:14:48;;;;;;;3.13;1.38;;;;;;;20.83;26.59;98320.56;5141997;27;20043;-64
2022/05/23 06:17:13;;;;;;;2.05;1.77;;;;;;;20.79;26.54;98314.00;5140474;27;20059;-64
2022/05/23 06:19:44;;;;;;;3.10;1.30;;;;;;;20.73;27.06;98319.16;5148468;27;20098;-64
2022/05/23 06:22:10;;;;;;;;;;;;;;;20.63;27.29;98315.28;5155982;27;20539;-64
2022/05/23 06:24:36;;;;;;;2.88;1.23;;;;;;;20.58;26.96;98311.41;5155299;27;20013;-64
2022/05/23 06:27:03;;;;;;;5.75;1.20;;;;;;;20.58;27.64;98311.41;5155299;27;20121;-64
2022/05/23 06:29:30;;;;;;;2.15;1.40;;;;;;;20.62;28.33;98310.94;5154680;27;20030;-64
2022/05/23 06:31:55;;;;;;;4.55;1.48;;;;;;;20.62;28.86;98309.09;5154363;27;20034;-64
2022/05/23 06:34:21;;;;;;;2.53;1.40;;;;;;;20.65;29.09;98311.38;5154121;27;20401;-64
2022/05/23 06:36:46;;;;;;;4.10;1.42;;;;;;;20.66;29.55;98310.28;5144051;27;20035;-64
2022/05/23 06:39:12;;;;;;;1.92;1.30;;;;;;;20.68;29.09;98305.53;5141109;27;20438;-64
2022/05/23 06:41:37;;;;;;;2.38;1.20;;;;;;;20.67;29.21;98317.31;5155634;27;20038;-64
2022/05/23 06:44:03;;;;;;;2.45;1.50;;;;;;;20.65;29.36;98310.53;5154763;27;20038;-64
2022/05/23 06:46:29;;;;;;;2.55;1.33;;;;;;;20.65;29.74;98321.28;5154972;27;20054;-64
2022/05/23 06:48:54;;;;;;;2.88;1.50;;;;;;;20.63;30.01;98312.59;5146302;27;20019;-64
2022/05/23 06:51:19;;;;;;;2.10;0.98;;;;;;;20.61;29.08;98301.25;5134591;27;20118;-64
2022/05/23 06:53:45;;;;;;;1.98;1.30;;;;;;;20.57;29.39;98307.06;5133983;27;20031;-64
2022/05/23 06:56:12;;;;;;;3.47;1.17;;;;;;;20.55;29.92;98294.88;5133731;27;20046;-65
2022/05/23 06:58:39;;;;;;;2.13;1.45;;;;;;;20.55;29.42;98284.13;5135849;27;20045;-64
2022/05/23 07:01:05;;;;;;;2.45;1.45;;;;;;;20.54;28.89;98295.91;5154177;27;20382;-64
2022/05/23 07:03:30;;;;;;;2.05;1.10;;;;;;;20.51;28.92;98289.13;5154657;27;20443;-64
2022/05/23 07:14:07;;;;;;;3.53;1.50;;;;;;;20.42;28.48;98277.78;5154883;27;20168;-64
2022/05/23 07:16:33;;;;;;;2.65;1.35;;;;;;;20.42;28.02;98274.31;5153495;27;20133;-63
2022/05/23 07:18:59;;;;;;;2.90;1.23;;;;;;;20.41;28.08;98273.47;5144396;27;20031;-64
2022/05/23 07:21:24;;;;;;;2.20;1.42;;;;;;;20.40;27.86;98276.38;5150290;27;20161;-64
2022/05/23 07:23:51;;;;;;;4.50;1.20;;;;;;;20.37;28.13;98266.88;5152230;27;20075;-65
2022/05/23 07:26:17;;;;;;;2.17;1.10;;;;;;;20.35;27.60;98271.66;5150841;27;20038;-64
2022/05/23 07:28:44;;;;;;;6.22;1.20;;;;;;;20.32;27.34;98274.78;5154239;27;20030;-64
2022/05/23 07:31:11;;;;;;;3.97;1.42;;;;;;;20.28;27.57;98271.69;5152402;27;20408;-63
2022/05/23 07:33:39;;;;;;;5.15;1.40;;;;;;;20.25;28.10;98255.16;5151167;27;20034;-64
2022/05/23 07:36:06;;;;;;;9.75;1.80;;;;;;;20.27;28.64;98267.38;5153491;27;20062;-62
2022/05/23 07:38:31;;;;;;;3.13;1.10;;;;;;;20.25;28.06;98261.38;5153811;27;20039;-64
2022/05/23 07:40:58;;;;;;;5.43;1.95;;;;;;;20.22;28.34;98258.31;5153792;27;20489;-64
2022/05/23 07:43:23;;;;;;;2.35;1.45;;;;;;;20.21;27.91;98253.97;5148396;27;20402;-64
2022/05/23 07:45:51;;;;;;;5.30;1.42;;;;;;;20.17;27.80;98253.56;5133625;28;20037;-64
2022/05/23 07:48:18;;;;;;;4.20;1.58;;;;;;;20.16;27.50;98257.28;5133609;28;20079;-64
2022/05/23 07:50:45;;;;;;;3.55;1.25;;;;;;;20.12;27.30;98248.84;5133607;28;20036;-64
2022/05/23 08:01:24;;;;;;;3.20;1.20;;;;;;;20.03;27.06;98238.56;5154086;27;20127;-64
2022/05/23 08:03:50;;;;;;;4.85;1.30;;;;;;;19.99;27.14;98238.16;5153642;27;20397;-64
2022/05/23 08:06:16;;;;;;;1.83;1.02;;;;;;;20.02;27.04;98239.59;5154050;27;20031;-65
2022/05/23 08:08:41;;;;;;;5.22;1.20;;;;;;;20.00;26.95;98239.81;5126224;27;20392;-65
2022/05/23 08:11:08;;;;;;;2.60;1.38;;;;;;;19.99;26.90;98238.16;5153015;27;20038;-65
2022/05/23 08:13:39;;;;;;;6.55;1.20;;;;;;;19.98;26.82;98241.88;5154184;27;20069;-65
2022/05/23 08:16:05;;;;;;;2.50;1.20;;;;;;;19.96;27.71;98233.22;5137077;27;20035;-64
2022/05/23 08:18:31;;;;;;;4.13;1.23;;;;;;;19.96;27.27;98234.06;5136529;27;20557;-64
2022/05/23 08:20:57;;;;;;;1.63;1.00;;;;;;;19.95;27.29;98232.41;5154080;27;20121;-65
2022/05/23 08:23:23;;;;;;;3.10;1.27;;;;;;;19.94;27.12;98225.38;5153611;27;20053;-65
2022/05/23 08:25:48;;;;;;;4.72;1.95;;;;;;;19.94;27.20;98219.19;5153525;27;20483;-65
2022/05/23 08:28:14;;;;;;;2.78;1.33;;;;;;;19.94;27.43;98219.19;5153809;27;20079;-64
2022/05/23 08:30:40;;;;;;;2.30;1.20;;;;;;;19.91;27.40;98215.06;5154074;27;20084;-65
2022/05/23 08:33:06;;;;;;;2.97;0.98;;;;;;;19.90;26.88;98220.66;5153434;27;20035;-64
2022/05/23 08:35:32;;;;;;;3.10;1.45;;;;;;;19.90;26.97;98217.97;5156549;27;20124;-64
2022/05/23 08:38:02;;;;;;;3.55;1.10;;;;;;;19.88;26.86;98218.19;5178042;27;20077;-64
2022/05/23 08:41:02;;;;;;;4.32;1.20;;;;;;;19.88;27.26;98212.00;5156004;27;20545;-64
2022/05/23 08:43:56;;;;;;;3.03;1.00;;;;;;;19.87;27.51;98207.66;5152192;27;20065;-64
2022/05/23 08:46:28;;;;;;;2.22;1.05;;;;;;;19.86;27.50;98211.34;5157892;27;20465;-64
2022/05/23 08:49:06;;;;;;;4.55;1.13;;;;;;;19.86;27.21;98206.78;5156616;27;20023;-65
2022/05/23 08:51:44;;;;;;;1.92;1.67;;;;;;;19.83;26.73;98205.38;5157298;27;20103;-65
2022/05/23 08:54:27;;;;;;;5.10;1.55;;;;;;;19.82;26.69;98219.03;5156747;27;20046;-64
2022/05/23 08:56:56;;;;;;;2.30;1.38;;;;;;;19.80;26.81;98221.09;5150672;27;20026;-65
2022/05/23 08:59:27;;;;;;;2.45;1.45;;;;;;;19.80;26.74;98207.66;5156781;27;20034;-64
2022/05/23 09:01:58;;;;;;;5.32;1.50;;;;;;;19.78;26.37;98210.53;5157413;27;20058;-63
2022/05/23 09:04:31;;;;;;;1.70;1.20;;;;;;;19.78;26.25;98213.22;5154208;27;20038;-63
2022/05/23 09:06:59;;;;;;;3.40;1.23;;;;;;;19.76;26.19;98201.06;5156650;27;20046;-63
2022/05/23 09:09:27;;;;;;;2.45;1.40;;;;;;;19.73;26.78;98207.69;5136477;27;20031;-64
2022/05/23 09:11:59;;;;;;;6.28;1.70;;;;;;;19.76;27.03;98209.13;5149659;27;20079;-65
2022/05/23 09:14:24;;;;;;;3.70;1.45;;;;;;;19.74;27.29;98205.81;5156220;27;20179;-64
2022/05/23 09:16:52;;;;;;;1.77;1.05;;;;;;;19.74;27.22;98187.88;5156489;27;20047;-64
2022/05/23 09:19:32;;;;;;;4.97;1.10;;;;;;;19.75;27.86;98210.16;5155842;27;20030;-64
2022/05/23 09:22:18;;;;;;;2.33;1.20;;;;;;;19.74;27.61;98213.88;5156617;27;20041;-64
2022/05/23 09:24:51;;;;;;;1.58;1.10;;;;;;;19.72;27.18;98211.41;5156463;27;20030;-64
2022/05/23 09:27:26;;;;;;;1.95;1.10;;;;;;;19.72;27.72;98206.06;5156855;27;20030;-63
2022/05/23 09:29:54;;;;;;;2.55;1.10;;;;;;;19.70;27.55;98218.84;5156315;27;20061;-64
2022/05/23 09:32:24;;;;;;;6.18;1.00;;;;;;;19.69;27.09;98214.53;5156623;27;20492;-64
2022/05/23 09:34:55;;;;;;;1.77;0.85;;;;;;;19.69;27.41;98208.34;5156630;27;20041;-64
2022/05/23 09:37:36;;;;;;;1.85;1.08;;;;;;;19.67;27.46;98204.00;5156115;27;20121;-64
2022/05/23 09:40:03;;;;;;;1.58;0.98;;;;;;;19.65;27.37;98203.41;5156012;27;20038;-63
2022/05/23 09:48:08;;;;;;;2.08;1.08;;;;;;;19.63;27.28;98193.91;5156301;27;20041;-63
2022/05/23 09:50:38;;;;;;;1.75;1.10;;;;;;;19.62;27.69;98198.44;5156385;27;20056;-63
2022/05/23 09:53:13;;;;;;;2.90;1.15;;;;;;;19.61;28.02;98196.00;5155992;27;20087;-64
2022/05/23 09:55:39;;;;;;;4.78;1.48;;;;;;;19.62;27.58;98178.84;5156014;27;20408;-65
2022/05/23 09:58:08;;;;;;;3.70;1.30;;;;;;;19.62;28.25;98192.28;5155783;27;20126;-64
2022/05/23 10:01:04;;;;;;;1.85;0.93;;;;;;;19.62;28.54;98189.59;5155511;27;20409;-64
2022/05/23 10:03:31;;;;;;;2.88;1.40;;;;;;;19.61;28.96;98188.75;5155189;27;20046;-65
2022/05/23 10:06:17;;;;;;;2.55;1.25;;;;;;;19.62;28.97;98176.19;5155336;27;20034;-64
2022/05/23 10:08:50;;;;;;;1.98;1.10;;;;;;;19.61;28.65;98171.84;5154567;27;20038;-64
2022/05/23 10:11:20;;;;;;;3.40;1.30;;;;;;;19.61;27.98;98183.38;5155803;27;20396;-64
2022/05/23 10:13:51;;;;;;;1.52;1.00;;;;;;;19.60;28.71;98181.72;5155398;27;20467;-64
2022/05/23 10:16:27;;;;;;;2.45;0.95;;;;;;;19.59;28.19;98180.09;5155663;27;20069;-64
2022/05/23 10:19:04;;;;;;;2.42;1.00;;;;;;;19.58;28.25;98169.59;5155695;27;20397;-64
2022/05/23 10:21:32;;;;;;;2.60;1.48;;;;;;;19.58;27.94;98172.25;5155482;27;20038;-64
2022/05/23 10:24:10;;;;;;;1.88;1.30;;;;;;;19.57;28.40;98170.63;5155315;27;20038;-65
2022/05/23 10:26:45;;;;;;;2.45;0.90;;;;;;;19.58;27.64;98183.00;5147045;27;20062;-64
2022/05/23 10:29:32;;;;;;;4.22;0.95;;;;;;;19.55;27.47;98181.56;5154601;27;20037;-65
2022/05/23 10:32:07;;;;;;;3.15;1.20;;;;;;;19.52;27.68;98172.06;5155182;27;20098;-65
2022/05/23 10:34:51;;;;;;;3.42;1.00;;;;;;;19.51;27.79;98169.59;5155217;27;20501;-65
2022/05/23 10:37:26;;;;;;;2.38;2.10;;;;;;;19.50;27.33;98165.28;5151650;27;20022;-65
2022/05/23 10:42:58;;;;;;;1.77;0.90;;;;;;;19.48;27.81;98168.16;5155687;27;20182;-65
2022/05/23 10:45:37;;;;;;;1.50;0.93;;;;;;;19.49;28.16;98172.47;5155367;27;20050;-65
2022/05/23 10:48:33;;;;;;;2.65;1.13;;;;;;;19.49;28.52;98175.16;5154832;27;20420;-65
2022/05/23 10:51:29;;;;;;;1.38;0.85;;;;;;;19.47;28.37;98166.53;5154769;27;20057;-65
2022/05/23 10:54:20;;;;;;;2.35;1.00;;;;;;;19.47;27.96;98174.59;5155466;27;20078;-65
2022/05/23 10:57:06;;;;;;;1.77;0.80;;;;;;;19.46;28.05;98183.66;5154776;27;20088;-65
2022/05/23 10:59:42;;;;;;;1.13;0.85;;;;;;;19.46;28.17;98170.25;5154764;27;20030;-65
2022/05/23 11:02:29;;;;;;;2.05;1.20;;;;;;;19.47;28.36;98171.91;5154387;27;20046;-65
2022/05/23 11:05:05;;;;;;;1.70;1.10;;;;;;;19.47;28.31;98176.44;5154850;27;20031;-65
2022/05/23 11:07:38;;;;;;;2.65;1.10;;;;;;;19.47;28.36;98177.25;5154860;27;20031;-65
2022/05/23 11:10:15;;;;;;;3.78;1.52;;;;;;;19.48;28.33;98170.03;5154220;27;20554;-65
2022/05/23 11:12:55;;;;;;;2.53;1.20;;;;;;;19.48;28.38;98172.72;5154432;27;20042;-65
2022/05/23 11:16:00;;;;;;;3.60;1.10;;;;;;;19.46;27.83;98175.63;5151207;27;20397;-65
2022/05/23 11:18:25;;;;;;;4.38;1.00;;;;;;;19.45;27.89;98178.50;5066075;27;20414;-65
2022/05/23 11:20:56;;;;;;;3.50;1.50;;;;;;;19.45;27.73;98165.91;5152324;27;20102;-65
2022/05/23 11:23:45;;;;;;;4.60;0.98;;;;;;;19.47;27.78;98163.84;5153093;27;20034;-64
2022/05/23 11:26:36;;;;;;;3.08;1.15;;;;;;;19.46;27.88;98159.53;5140464;27;20066;-65
2022/05/23 11:34:44;;;;;;;5.25;1.40;;;;;;;19.41;28.33;98156.66;5145341;27;20026;-63
2022/05/23 11:40:02;;;;;;;2.78;1.05;;;;;;;19.39;28.19;98161.38;5153235;27;20027;-63
2022/05/23 11:42:31;;;;;;;7.03;1.75;;;;;;;19.36;28.06;98168.00;5153990;27;20402;-63
2022/05/23 11:48:30;;;;;;;6.45;1.98;;;;;;;19.34;27.92;98162.03;5142481;27;20042;-63
2022/05/23 11:51:31;;;;;;;4.90;1.30;;;;;;;19.33;27.69;98151.53;5153779;27;20031;-64
2022/05/23 11:53:59;;;;;;;3.23;1.57;;;;;;;19.28;27.74;98152.13;5130410;27;20050;-63
2022/05/23 11:57:00;;;;;;;2.20;1.15;;;;;;;19.29;27.85;98155.66;5153592;27;20117;-64
2022/05/23 11:59:25;;;;;;;3.15;1.40;;;;;;;19.25;27.67;98149.91;5120755;27;20039;-64
2022/05/23 12:02:14;;;;;;;3.47;1.00;;;;;;;19.22;27.52;98147.63;5153836;27;20035;-64
2022/05/23 12:04:48;;;;;;;2.33;1.35;;;;;;;19.21;27.61;98164.75;5139659;27;20034;-64
2022/05/23 12:07:42;;;;;;;2.92;1.52;;;;;;;19.20;27.93;98163.91;5154109;27;20035;-64
2022/05/23 12:10:23;;;;;;;3.60;1.15;;;;;;;19.23;28.12;98167.22;5152780;27;20037;-64
2022/05/23 12:12:55;;;;;;;2.67;1.35;;;;;;;19.23;28.11;98153.81;5157591;27;20034;-64
2022/05/23 12:15:50;;;;;;;4.95;1.17;;;;;;;19.25;28.31;98170.50;5158339;27;20083;-64
2022/05/23 12:18:22;;;;;;;5.45;1.27;;;;;;;19.23;27.94;98178.78;5157283;27;20401;-64
2022/05/23 12:20:50;;;;;;;3.30;1.27;;;;;;;19.21;27.80;98168.25;5157942;27;20043;-64
2022/05/23 12:23:41;;;;;;;5.38;1.73;;;;;;;19.22;27.94;98169.09;5157408;27;20339;-64
2022/05/23 12:26:09;;;;;;;19.75;7.20;;;;;;;19.21;28.57;98173.63;5157644;27;20037;-64
2022/05/23 12:28:56;;;;;;;20.95;6.97;;;;;;;19.23;28.26;98167.22;5157516;27;20098;-64
2022/05/23 12:31:27;;;;;;;71.03;17.83;;;;;;;19.21;29.21;98170.94;5157296;27;20508;-64
2022/05/23 12:34:02;;;;;;;85.30;24.15;;;;;;;19.22;30.10;98166.41;5157510;27;20026;-64
2022/05/23 12:36:34;;;;;;;59.70;19.17;;;;;;;19.21;29.63;98172.81;5149446;27;20034;-64
2022/05/23 12:39:18;;;;;;;75.32;20.83;;;;;;;19.22;29.97;98163.72;5127751;27;20389;-64
2022/05/23 12:41:56;;;;;;;68.60;21.02;;;;;;;19.24;30.13;98172.38;5157533;27;20087;-64
2022/05/23 12:45:04;;;;;;;59.05;16.55;;;;;;;19.25;29.75;98173.19;5157974;27;20117;-64
2022/05/23 12:47:38;;;;;;;58.38;17.48;;;;;;;19.23;29.70;98160.00;5156702;27;20046;-64
2022/05/23 12:50:22;;;;;;;81.13;28.67;;;;;;;19.24;30.66;98167.03;5157256;27;20046;-64
2022/05/23 12:53:16;;;;;;;44.80;15.30;;;;;;;19.27;30.23;98165.78;5156987;27;20030;-64